Time;durP1;ratioP1;P1;durP2;ratioP2;P2;SDS_P1;SDS_P2;PMS_P1;PMS_P2;Temp;Humidity;BMP_temperature;BMP_pressure;BME280_temperature;BME280_humidity;BME280_pressure;Samples;Min_cycle;Max_cycle;Signal;HPM_P1;HPM_P2
2022/03/09 00:00:03;;;;;;;;;20.00;20.00;;;;;19.66;26.26;101376.72;5079302;27;45306;-48
2022/03/09 00:02:28;;;;;;;;;25.50;22.75;;;;;19.66;26.26;101376.72;5079827;27;45390;-49
2022/03/09 00:04:53;;;;;;;;;26.00;23.75;;;;;19.65;26.26;101369.75;5079158;27;45496;-48
2022/03/09 00:07:19;;;;;;;;;25.00;20.50;;;;;19.65;26.12;101372.38;5079045;27;45859;-48
2022/03/09 00:09:44;;;;;;;;;28.25;26.00;;;;;19.64;26.12;101370.66;5079057;27;45307;-47
2022/03/09 00:12:10;;;;;;;;;23.25;21.25;;;;;19.63;26.08;101371.56;5079254;27;45577;-45
2022/03/09 00:14:35;;;;;;;;;20.25;19.50;;;;;19.63;26.45;101371.56;5077371;28;48015;-48
2022/03/09 00:17:00;;;;;;;;;27.75;23.25;;;;;19.61;26.21;101369.03;5078973;27;45268;-48
2022/03/09 00:19:26;;;;;;;;;30.25;22.75;;;;;19.61;26.41;101373.41;5079186;27;45192;-46
2022/03/09 00:21:51;;;;;;;;;29.50;25.50;;;;;19.60;26.53;101372.56;5079179;27;45157;-49
2022/03/09 00:24:18;;;;;;;;;23.75;20.75;;;;;19.59;26.60;101375.25;5078778;27;45285;-47
2022/03/09 00:26:44;;;;;;;;;23.75;20.25;;;;;19.56;26.53;101370.97;5078718;28;45946;-51
2022/03/09 00:29:09;;;;;;;;;26.75;23.00;;;;;19.57;26.21;101377.09;5078849;27;45177;-47
2022/03/09 00:31:34;;;;;;;;;28.50;24.75;;;;;19.55;26.38;101379.78;5079152;27;45635;-48
2022/03/09 00:34:00;;;;;;;;;28.00;23.00;;;;;19.56;26.47;101383.28;5078813;27;46061;-49
2022/03/09 00:36:25;;;;;;;;;21.50;21.00;;;;;19.54;26.42;101382.50;5078906;27;45475;-47
2022/03/09 00:38:51;;;;;;;;;26.67;23.67;;;;;19.54;26.24;101383.34;5078461;27;48933;-45
2022/03/09 00:41:16;;;;;;;;;25.00;24.00;;;;;19.54;26.63;101387.75;5078800;27;45505;-46
2022/03/09 00:43:42;;;;;;;;;30.75;25.00;;;;;19.52;26.65;101379.91;5078507;27;45306;-50
2022/03/09 00:46:07;;;;;;;;;26.50;23.50;;;;;19.52;26.54;101384.34;5078346;28;45441;-48
2022/03/09 00:48:33;;;;;;;;;22.75;19.50;;;;;19.52;26.37;101394.84;5078647;27;45370;-48
2022/03/09 00:50:58;;;;;;;;;25.75;23.00;;;;;19.51;26.57;101387.88;5079047;27;45413;-45
2022/03/09 00:53:24;;;;;;;;;25.25;22.50;;;;;19.51;26.55;101391.38;5078314;27;45322;-46
2022/03/09 00:55:49;;;;;;;;;19.50;19.00;;;;;19.50;26.29;101394.06;5076993;28;45400;-47
2022/03/09 00:58:15;;;;;;;;;29.00;25.75;;;;;19.47;26.36;101395.88;5078696;27;45278;-48
2022/03/09 01:00:40;;;;;;;;;28.25;26.00;;;;;19.47;26.86;101403.78;5078617;27;45207;-49
2022/03/09 01:03:05;;;;;;;;;25.25;22.50;;;;;19.48;26.80;101407.28;5077499;27;45490;-51
2022/03/09 01:05:31;;;;;;;;;24.00;21.00;;;;;19.46;26.57;101403.84;5078374;27;45494;-45
2022/03/09 01:07:56;;;;;;;;;26.75;23.75;;;;;19.45;26.69;101404.75;5078272;27;45295;-49
2022/03/09 01:10:21;;;;;;;;;28.25;25.25;;;;;19.45;26.38;101405.63;5078295;27;45558;-46
2022/03/09 01:12:47;;;;;;;;;22.75;18.25;;;;;19.44;26.61;101398.66;5078076;27;46807;-49
2022/03/09 01:15:12;;;;;;;;;29.25;22.25;;;;;19.44;26.81;101403.03;5077817;28;45357;-48
2022/03/09 01:17:38;;;;;;;;;24.00;22.50;;;;;19.42;26.79;101405.75;5078113;27;45291;-49
2022/03/09 01:20:03;;;;;;;;;25.25;23.25;;;;;19.43;26.68;101412.72;5078153;27;45310;-48
2022/03/09 01:22:29;;;;;;;;;25.25;23.50;;;;;19.43;26.72;101412.72;5078113;27;45262;-46
2022/03/09 01:24:54;;;;;;;;;26.50;23.00;;;;;19.43;26.44;101411.84;5077878;27;45409;-50
2022/03/09 01:27:20;;;;;;;;;23.25;21.75;;;;;19.40;26.62;101404.97;5078017;27;45611;-47
2022/03/09 01:29:45;;;;;;;;;23.50;23.50;;;;;19.41;26.55;101411.06;5078071;27;45594;-45
2022/03/09 01:32:10;;;;;;;;;24.75;21.50;;;;;19.41;26.55;101408.41;5075969;28;56745;-48
2022/03/09 01:34:36;;;;;;;;;23.50;20.00;;;;;19.40;26.98;101402.31;5077637;27;45651;-48
2022/03/09 01:37:01;;;;;;;;;28.50;25.50;;;;;19.40;26.74;101410.22;5078036;27;45453;-48
2022/03/09 01:39:27;;;;;;;;;26.50;24.00;;;;;19.40;26.85;101407.59;5077775;27;45346;-49
2022/03/09 01:41:52;;;;;;;;;21.50;20.00;;;;;19.39;26.79;101413.75;5077440;27;45369;-47
2022/03/09 01:44:20;;;;;;;;;23.75;22.00;;;;;19.38;26.74;101409.41;5077603;27;45323;-47
2022/03/09 01:46:47;;;;;;;;;32.00;25.75;;;;;19.38;26.76;101398.06;5077480;27;45255;-49
2022/03/09 01:49:13;;;;;;;;;22.75;22.00;;;;;19.39;26.83;101399.78;5077867;27;45215;-52
2022/03/09 01:51:43;;;;;;;;;19.75;18.50;;;;;19.38;26.72;101398.06;5077537;27;46469;-49
2022/03/09 01:54:09;;;;;;;;;23.00;21.25;;;;;19.37;26.83;101391.09;5077308;27;45512;-48
2022/03/09 01:56:36;;;;;;;;;28.00;23.50;;;;;19.36;26.97;101387.59;5077542;27;45375;-45
2022/03/09 01:59:03;;;;;;;;;31.75;24.00;;;;;19.35;26.80;101393.75;5077983;28;45374;-48
2022/03/09 02:01:28;;;;;;;;;26.75;23.75;;;;;19.36;27.03;101395.47;5077232;27;46684;-46
2022/03/09 02:03:56;;;;;;;;;25.00;21.50;;;;;19.34;26.79;101394.72;5077282;27;45392;-49
2022/03/09 02:06:21;;;;;;;;;25.50;24.50;;;;;19.34;26.81;101392.06;5077358;27;45420;-50
2022/03/09 02:11:33;;;;;;;;;25.00;22.75;;;;;19.33;26.97;101395.63;5077250;28;45882;-51
2022/03/09 02:13:58;;;;;;;;;21.00;20.50;;;;;19.34;27.04;101385.94;5075909;27;45853;-46
2022/03/09 02:16:24;;;;;;;;;19.50;19.25;;;;;19.32;27.17;101380.78;5077225;27;45346;-46
2022/03/09 02:18:49;;;;;;;;;32.00;22.50;;;;;19.33;26.98;101384.25;5077281;27;45367;-50
2022/03/09 02:21:16;;;;;;;;;23.50;22.00;;;;;19.32;26.91;101383.41;5076992;27;46588;-47
2022/03/09 02:23:42;;;;;;;;;28.00;23.75;;;;;19.33;27.15;101389.50;5076956;27;45366;-48
2022/03/09 02:26:07;;;;;;;;;27.00;23.00;;;;;19.32;26.87;101391.28;5077094;27;45417;-51
2022/03/09 02:28:39;;;;;;;;;21.75;20.50;;;;;19.31;27.22;101382.53;5077603;27;45150;-50
2022/03/09 02:31:05;;;;;;;;;24.50;21.75;;;;;19.31;27.35;101389.56;5076903;27;45349;-48
2022/03/09 02:33:31;;;;;;;;;14.75;13.00;;;;;19.28;27.11;101387.94;5077286;27;45338;-48
2022/03/09 02:35:56;;;;;;;;;21.25;21.00;;;;;19.29;27.15;101394.03;5075680;27;45640;-48
2022/03/09 02:38:22;;;;;;;;;23.50;20.75;;;;;19.28;27.11;101393.19;5075762;28;45329;-50
2022/03/09 02:40:47;;;;;;;;;27.25;21.25;;;;;19.29;27.24;101396.66;5076545;27;46328;-46
2022/03/09 02:43:13;;;;;;;;;21.75;21.25;;;;;19.28;27.37;101382.69;5076537;27;45284;-46
2022/03/09 02:45:38;;;;;;;;;22.75;19.25;;;;;19.29;27.32;101386.16;5076621;27;45359;-44
2022/03/09 02:48:03;;;;;;;;;19.00;17.75;;;;;19.27;27.14;101382.72;5077333;27;45471;-46
2022/03/09 02:50:29;;;;;;;;;20.25;18.00;;;;;19.28;27.29;101387.06;5076467;27;46692;-46
2022/03/09 02:52:54;;;;;;;;;19.00;18.25;;;;;19.27;27.07;101390.59;5076542;27;45226;-50
2022/03/09 02:55:19;;;;;;;;;23.50;20.00;;;;;19.27;27.17;101387.97;5076682;27;45330;-47
2022/03/09 02:57:45;;;;;;;;;23.00;19.25;;;;;19.26;27.21;101394.16;5076807;27;45542;-45
2022/03/09 03:00:11;;;;;;;;;23.00;22.50;;;;;19.25;27.57;101397.69;5076321;27;46631;-46
2022/03/09 03:02:38;;;;;;;;;20.25;17.75;;;;;19.24;27.64;101396.84;5076746;27;45360;-51
2022/03/09 03:05:04;;;;;;;;;21.50;18.25;;;;;19.26;27.50;101407.28;5076837;27;45474;-46
2022/03/09 03:07:29;;;;;;;;;22.25;21.25;;;;;19.25;27.33;101408.19;5076689;27;45529;-47
2022/03/09 03:09:56;;;;;;;;;17.75;17.25;;;;;19.25;27.18;101413.47;5076217;27;46292;-51
2022/03/09 03:12:21;;;;;;;;;22.50;17.00;;;;;19.25;27.46;101410.81;5075031;28;45338;-47
2022/03/09 03:14:46;;;;;;;;;24.00;19.50;;;;;19.23;27.65;101416.16;5076479;27;45386;-47
2022/03/09 03:17:12;;;;;;;;;20.00;18.00;;;;;19.24;27.48;101414.38;5076432;27;45602;-47
2022/03/09 03:19:37;;;;;;;;;21.75;19.50;;;;;19.21;27.66;101410.09;5076629;27;45280;-50
2022/03/09 03:22:03;;;;;;;;;24.67;18.33;;;;;19.21;27.53;101404.84;5076224;27;45327;-47
2022/03/09 03:24:28;;;;;;;;;20.25;17.25;;;;;19.22;27.67;101408.34;5076221;28;45337;-47
2022/03/09 03:26:53;;;;;;;;;18.75;16.50;;;;;19.20;27.63;101402.28;5079459;27;45302;-48
2022/03/09 03:29:19;;;;;;;;;19.50;18.00;;;;;19.21;27.68;101401.38;5079690;27;46266;-46
2022/03/09 03:31:44;;;;;;;;;19.00;19.00;;;;;19.21;27.40;101401.38;5079791;27;45373;-47
2022/03/09 03:34:09;;;;;;;;;19.75;16.00;;;;;19.20;27.88;101397.03;5079689;27;45554;-49
2022/03/09 03:36:35;;;;;;;;;19.25;17.50;;;;;19.21;27.83;101393.50;5080241;27;45360;-50
2022/03/09 03:39:00;;;;;;;;;21.00;19.25;;;;;19.19;27.65;101392.69;5079450;27;45420;-50
2022/03/09 03:41:26;;;;;;;;;22.50;19.00;;;;;19.19;28.02;101395.31;5079456;27;45483;-48
2022/03/09 03:43:51;;;;;;;;;17.00;17.00;;;;;19.19;27.89;101400.59;5078156;28;45369;-47
2022/03/09 03:46:16;;;;;;;;;22.75;15.25;;;;;19.18;27.60;101402.38;5079727;27;45275;-46
2022/03/09 03:48:42;;;;;;;;;22.00;17.75;;;;;19.16;27.95;101399.78;5077924;28;46834;-47
2022/03/09 03:51:07;;;;;;;;;20.75;19.50;;;;;19.17;27.69;101400.66;5079747;27;45355;-48
2022/03/09 03:53:32;;;;;;;;;18.00;16.50;;;;;19.18;28.12;101388.34;5078297;27;45448;-46
2022/03/09 03:55:58;;;;;;;;;20.50;19.50;;;;;19.16;27.66;101394.53;5079428;27;45382;-46
2022/03/09 03:58:23;;;;;;;;;23.75;20.00;;;;;19.14;27.78;101398.97;5077711;27;46187;-46
2022/03/09 04:00:49;;;;;;;;;22.75;17.25;;;;;19.15;28.17;101403.31;5079250;27;45473;-50
2022/03/09 04:03:14;;;;;;;;;18.00;17.50;;;;;19.15;27.83;101408.56;5079315;27;45324;-48
2022/03/09 04:05:39;;;;;;;;;17.75;17.75;;;;;19.14;28.05;101412.13;5079684;27;45533;-49
2022/03/09 04:08:05;;;;;;;;;18.00;15.50;;;;;19.14;27.84;101409.50;5079029;27;46224;-49
2022/03/09 04:10:30;;;;;;;;;21.50;16.50;;;;;19.13;28.24;101405.16;5079002;27;45287;-49
2022/03/09 04:13:00;;;;;;;;;20.75;20.50;;;;;19.13;27.79;101409.56;5077832;28;45305;-50
2022/03/09 04:15:25;;;;;;;;;19.75;17.50;;;;;19.12;28.03;101402.59;5079049;27;45336;-47
2022/03/09 04:17:50;;;;;;;;;19.75;18.75;;;;;19.12;28.12;101408.72;5078856;27;46188;-49
2022/03/09 04:20:16;;;;;;;;;21.75;17.75;;;;;19.12;28.08;101410.47;5077732;28;45391;-52
2022/03/09 04:22:42;;;;;;;;;18.25;15.75;;;;;19.10;28.41;101407.94;5079255;27;45362;-49
2022/03/09 04:25:09;;;;;;;;;19.00;17.25;;;;;19.10;28.09;101415.81;5078087;28;45453;-48
2022/03/09 04:27:35;;;;;;;;;20.75;20.25;;;;;19.10;28.13;101407.94;5078652;27;46607;-47
2022/03/09 04:30:01;;;;;;;;;20.50;17.50;;;;;19.09;28.46;101403.59;5078756;27;45445;-47
2022/03/09 04:32:26;;;;;;;;;21.25;17.25;;;;;19.09;28.28;101407.97;5078916;27;45220;-46
2022/03/09 04:34:53;;;;;;;;;18.25;16.00;;;;;19.08;28.51;101407.13;5078967;27;45612;-50
2022/03/09 04:37:19;;;;;;;;;18.25;17.50;;;;;19.08;28.66;101407.13;5077108;27;53038;-47
2022/03/09 04:39:45;;;;;;;;;22.25;18.50;;;;;19.09;28.52;101407.97;5078521;27;45290;-46
2022/03/09 04:42:11;;;;;;;;;21.75;19.75;;;;;19.07;28.40;101402.78;5079017;27;45390;-44
2022/03/09 04:44:36;;;;;;;;;23.50;21.50;;;;;19.07;28.30;101408.03;5078844;27;45497;-45
2022/03/09 04:47:02;;;;;;;;;26.00;20.25;;;;;19.08;28.45;101414.13;5077852;27;45346;-47
2022/03/09 04:49:27;;;;;;;;;21.50;19.50;;;;;19.06;28.25;101405.47;5078526;27;45426;-49
2022/03/09 04:51:53;;;;;;;;;23.50;21.75;;;;;19.06;28.34;101414.22;5078760;27;45300;-47
2022/03/09 04:54:18;;;;;;;;;23.25;22.00;;;;;19.05;28.47;101409.88;5078828;27;45307;-45
2022/03/09 04:56:44;;;;;;;;;23.75;21.00;;;;;19.06;28.43;101422.09;5078261;27;46007;-46
2022/03/09 04:59:09;;;;;;;;;23.00;16.75;;;;;19.06;28.64;101424.72;5078673;27;45488;-47
2022/03/09 05:01:34;;;;;;;;;22.25;22.25;;;;;19.05;28.33;101430.88;5078293;27;45396;-49
2022/03/09 05:04:00;;;;;;;;;17.25;16.75;;;;;19.06;28.46;101431.75;5078590;27;45429;-46
2022/03/09 05:06:25;;;;;;;;;23.00;19.25;;;;;19.03;28.34;101435.34;5078152;27;45918;-46
2022/03/09 05:08:50;;;;;;;;;22.50;21.50;;;;;19.04;28.35;101431.78;5078189;27;45184;-51
2022/03/09 05:11:16;;;;;;;;;21.50;20.75;;;;;19.05;28.66;101443.19;5078338;27;45153;-49
2022/03/09 05:13:41;;;;;;;;;23.50;19.50;;;;;19.03;28.52;101435.34;5078659;27;45238;-49
2022/03/09 05:16:07;;;;;;;;;24.00;21.00;;;;;19.02;28.47;101445.91;5077624;27;45471;-48
2022/03/09 05:18:37;;;;;;;;;25.75;21.50;;;;;19.03;28.69;101440.59;5077911;27;45242;-49
2022/03/09 05:21:02;;;;;;;;;23.50;20.25;;;;;19.03;28.76;101445.84;5078082;27;45369;-50
2022/03/09 05:23:27;;;;;;;;;26.00;18.50;;;;;19.02;28.58;101444.13;5078177;27;45307;-52
2022/03/09 05:25:53;;;;;;;;;24.75;19.50;;;;;19.01;28.41;101447.72;5077739;27;45676;-48
2022/03/09 05:28:18;;;;;;;;;21.75;19.25;;;;;19.00;28.27;101457.34;5077722;27;45408;-46
2022/03/09 05:30:43;;;;;;;;;20.25;19.25;;;;;18.99;28.52;101454.78;5078203;27;45312;-50
2022/03/09 05:33:09;;;;;;;;;20.00;18.25;;;;;19.00;28.73;101459.97;5078001;27;45286;-46
2022/03/09 05:35:37;;;;;;;;;21.00;21.00;;;;;19.00;28.66;101461.75;5077622;27;45965;-48
2022/03/09 05:38:02;;;;;;;;;31.00;25.00;;;;;18.98;28.66;101453.91;5077742;27;45235;-47
2022/03/09 05:40:28;;;;;;;;;22.50;22.50;;;;;18.98;28.52;101464.41;5077755;27;45223;-47
2022/03/09 05:42:53;;;;;;;;;22.50;21.25;;;;;18.99;28.69;101471.38;5077786;27;45268;-47
2022/03/09 05:45:19;;;;;;;;;25.75;23.00;;;;;18.98;28.46;101474.94;5077372;27;46115;-47
2022/03/09 05:47:44;;;;;;;;;18.75;16.25;;;;;18.98;28.66;101480.19;5077725;27;45225;-50
2022/03/09 05:50:09;;;;;;;;;7.50;5.25;;;;;18.97;28.70;101480.25;5077458;27;45255;-47
2022/03/09 05:52:35;;;;;;;;;25.00;21.50;;;;;18.97;28.73;101482.88;5076343;28;45703;-47
2022/03/09 05:55:00;;;;;;;;;20.50;18.25;;;;;18.97;28.62;101490.75;5077223;27;45460;-47
2022/03/09 05:57:26;;;;;;;;;25.00;21.50;;;;;18.96;28.74;101494.28;5077338;27;45251;-47
2022/03/09 05:59:51;;;;;;;;;22.75;20.25;;;;;18.97;28.48;101493.38;5077410;27;45348;-49
2022/03/09 06:02:17;;;;;;;;;22.75;18.00;;;;;18.96;28.42;101481.16;5077617;27;45592;-46
2022/03/09 06:04:45;;;;;;;;;25.00;23.50;;;;;18.95;28.63;101493.47;5077401;27;46060;-45
2022/03/09 06:07:11;;;;;;;;;22.50;22.50;;;;;18.94;28.79;101498.75;5077261;27;45256;-51
2022/03/09 06:09:36;;;;;;;;;30.75;25.75;;;;;18.92;28.52;101497.91;5077303;27;45228;-46
2022/03/09 06:12:02;;;;;;;;;32.25;29.25;;;;;18.90;28.76;101502.41;5077560;27;45362;-48
2022/03/09 06:14:27;;;;;;;;;33.25;30.75;;;;;18.88;28.79;101499.81;5076636;27;47408;-47
2022/03/09 06:16:52;;;;;;;;;30.00;29.75;;;;;18.84;28.62;101493.81;5076816;27;45310;-48
2022/03/09 06:19:18;;;;;;;;;30.75;24.00;;;;;18.83;28.73;101502.59;5077100;27;45218;-49
2022/03/09 06:21:44;;;;;;;;;27.00;26.00;;;;;18.82;28.73;101498.25;5077625;27;45216;-47
2022/03/09 06:24:10;;;;;;;;;29.00;25.00;;;;;18.80;28.82;101496.63;5076833;27;45396;-48
2022/03/09 06:26:38;;;;;;;;;28.75;27.25;;;;;18.81;28.76;101498.34;5076727;27;45870;-49
2022/03/09 06:29:05;;;;;;;;;33.00;26.75;;;;;18.80;28.70;101501.88;5075702;28;45446;-50
2022/03/09 06:31:30;;;;;;;;;30.75;28.50;;;;;18.79;28.94;101497.53;5077309;27;45558;-48
2022/03/09 06:33:56;;;;;;;;;23.75;22.00;;;;;18.79;28.75;101501.03;5076654;27;45485;-51
2022/03/09 06:36:22;;;;;;;;;25.50;21.75;;;;;18.80;29.03;101515.84;5076901;27;45275;-49
2022/03/09 06:38:47;;;;;;;;;24.50;23.00;;;;;18.79;28.84;101511.53;5076015;28;45677;-50
2022/03/09 06:41:12;;;;;;;;;26.25;25.00;;;;;18.80;28.74;101515.84;5076990;27;45536;-49
2022/03/09 06:43:38;;;;;;;;;25.00;23.25;;;;;18.79;28.77;101516.78;5076500;27;46888;-52
2022/03/09 06:46:04;;;;;;;;;25.75;23.50;;;;;18.78;28.67;101520.31;5075237;27;45719;-49
2022/03/09 06:48:30;;;;;;;;;26.75;25.75;;;;;18.78;28.98;101514.19;5076712;27;45236;-52
2022/03/09 06:50:55;;;;;;;;;26.75;24.00;;;;;18.77;28.83;101521.22;5075513;28;45422;-47
2022/03/09 06:53:21;;;;;;;;;24.50;23.75;;;;;18.76;28.79;101522.13;5075076;28;47430;-49
2022/03/09 06:55:46;;;;;;;;;27.75;25.75;;;;;18.75;29.04;101525.69;5075333;28;45453;-49
2022/03/09 06:58:11;;;;;;;;;32.00;26.67;;;;;18.76;28.95;101522.13;5076632;27;45336;-51
2022/03/09 07:00:37;;;;;;;;;29.25;24.75;;;;;18.76;29.06;101518.63;5077746;28;45244;-49
2022/03/09 07:03:05;;;;;;;;;28.00;26.75;;;;;18.75;28.99;101517.78;5079960;27;45431;-51
2022/03/09 07:05:31;;;;;;;;;25.75;24.00;;;;;18.75;29.01;101517.78;5079840;27;45371;-47
2022/03/09 07:07:56;;;;;;;;;28.25;24.50;;;;;18.76;28.89;101527.38;5080215;27;45303;-48
2022/03/09 07:10:21;;;;;;;;;25.00;23.50;;;;;18.76;28.99;101535.28;5080281;27;45248;-50
2022/03/09 07:12:47;;;;;;;;;28.00;23.25;;;;;18.76;28.82;101542.28;5080203;27;45953;-50
2022/03/09 07:15:14;;;;;;;;;27.50;26.00;;;;;18.77;28.83;101534.38;5079673;27;45387;-52
2022/03/09 07:17:40;;;;;;;;;29.50;25.50;;;;;18.76;28.89;101532.66;5078718;28;45435;-53
2022/03/09 07:20:07;;;;;;;;;28.25;24.50;;;;;18.77;29.01;101544.00;5079960;27;45477;-52
2022/03/09 07:22:32;;;;;;;;;25.25;24.75;;;;;18.77;28.74;101558.00;5078416;27;45333;-49
2022/03/09 07:24:57;;;;;;;;;22.25;20.75;;;;;18.78;29.00;101559.72;5079594;27;45405;-48
2022/03/09 07:27:23;;;;;;;;;21.25;21.25;;;;;18.77;29.05;101555.38;5079688;27;45333;-50
2022/03/09 07:29:48;;;;;;;;;27.00;24.00;;;;;18.78;28.90;101561.47;5080229;27;45351;-51
2022/03/09 07:32:14;;;;;;;;;28.50;24.00;;;;;18.78;28.83;101562.34;5079501;27;45330;-49
2022/03/09 07:34:40;;;;;;;;;21.50;21.25;;;;;18.77;28.90;101562.38;5079510;27;45402;-48
2022/03/09 07:37:06;;;;;;;;;26.25;19.25;;;;;18.78;29.01;101562.34;5079604;28;45290;-48
2022/03/09 07:39:32;;;;;;;;;28.25;23.75;;;;;18.76;28.81;101564.16;5079759;27;45296;-50
2022/03/09 07:41:57;;;;;;;;;25.00;19.75;;;;;18.77;28.94;101563.25;5079306;27;46258;-47
2022/03/09 07:44:23;;;;;;;;;22.00;21.25;;;;;18.77;28.89;101571.13;5079385;27;45208;-50
2022/03/09 07:46:49;;;;;;;;;24.75;21.50;;;;;18.78;29.17;101571.97;5078418;28;45271;-50
2022/03/09 07:49:15;;;;;;;;;26.00;24.00;;;;;18.77;28.91;101579.00;5079682;27;45620;-49
2022/03/09 07:51:40;;;;;;;;;23.75;21.75;;;;;18.78;28.83;101572.84;5079224;27;46431;-48
2022/03/09 07:54:06;;;;;;;;;23.50;22.25;;;;;18.77;28.89;101571.13;5079295;27;45438;-48
2022/03/09 07:56:32;;;;;;;;;26.75;20.75;;;;;18.78;29.05;101571.97;5079350;27;45378;-47
2022/03/09 07:58:57;;;;;;;;;21.25;19.25;;;;;18.78;28.90;101585.09;5078201;27;45531;-51
2022/03/09 08:01:23;;;;;;;;;17.50;15.75;;;;;18.78;28.89;101587.72;5079113;27;46028;-50
2022/03/09 08:03:48;;;;;;;;;23.50;21.00;;;;;18.78;28.70;101588.59;5079358;27;45264;-50
2022/03/09 08:06:14;;;;;;;;;21.75;20.25;;;;;18.77;28.84;101584.25;5079195;27;45269;-48
2022/03/09 08:08:39;;;;;;;;;24.25;24.25;;;;;18.77;29.00;101586.88;5079337;27;45458;-48
2022/03/09 08:11:05;;;;;;;;;20.00;18.50;;;;;18.78;28.88;101599.09;5078791;27;46824;-52
2022/03/09 08:13:30;;;;;;;;;20.50;20.25;;;;;18.77;29.08;101594.75;5078966;27;45260;-49
2022/03/09 08:15:55;;;;;;;;;24.00;21.50;;;;;18.78;28.92;101596.47;5078884;27;45217;-51
2022/03/09 08:18:21;;;;;;;;;20.50;18.25;;;;;18.77;28.97;101586.00;5079583;27;45350;-48
2022/03/09 08:20:47;;;;;;;;;20.50;17.50;;;;;18.78;29.07;101587.72;5078703;27;46276;-50
2022/03/09 08:23:13;;;;;;;;;24.00;21.25;;;;;18.79;29.10;101599.94;5078877;27;45292;-50
2022/03/09 08:25:39;;;;;;;;;18.50;16.00;;;;;18.79;29.16;101594.69;5078858;27;45725;-52
2022/03/09 08:28:05;;;;;;;;;23.75;21.25;;;;;18.78;28.98;101593.84;5078974;27;45357;-45
2022/03/09 08:30:30;;;;;;;;;22.00;20.50;;;;;18.80;29.29;101597.25;5078592;27;46100;-44
2022/03/09 08:32:56;;;;;;;;;21.00;17.00;;;;;18.80;28.97;101596.41;5077395;28;45268;-54
2022/03/09 08:35:21;;;;;;;;;22.00;19.75;;;;;18.80;29.22;101599.03;5079031;27;45413;-50
2022/03/09 08:37:46;;;;;;;;;24.33;19.33;;;;;18.82;29.20;101603.31;5078706;28;45335;-44
2022/03/09 08:40:12;;;;;;;;;16.50;16.00;;;;;18.81;29.47;101598.13;5078400;27;47113;-48
2022/03/09 08:42:39;;;;;;;;;18.00;16.25;;;;;18.82;29.42;101605.94;5077118;27;45385;-47
2022/03/09 08:45:05;;;;;;;;;18.25;16.00;;;;;18.82;29.62;101600.69;5078552;27;45327;-52
2022/03/09 08:47:30;;;;;;;;;20.00;16.50;;;;;18.84;29.79;101608.53;5078884;27;45325;-47
2022/03/09 08:49:57;;;;;;;;;20.75;17.25;;;;;18.84;29.47;101604.13;5078317;27;46028;-48
2022/03/09 08:52:23;;;;;;;;;18.75;16.50;;;;;18.84;29.80;101603.28;5078777;27;45295;-47
2022/03/09 08:54:53;;;;;;;;;15.00;13.00;;;;;18.84;29.79;101609.38;5078518;27;45304;-47
2022/03/09 08:57:19;;;;;;;;;16.25;15.50;;;;;18.84;29.82;101604.13;5078712;27;45410;-47
2022/03/09 08:59:45;;;;;;;;;16.00;14.00;;;;;18.87;29.81;101597.06;5078237;27;45475;-49
2022/03/09 09:02:10;;;;;;;;;15.50;15.50;;;;;18.88;29.78;101604.88;5078332;27;45330;-50
2022/03/09 09:04:36;;;;;;;;;16.75;13.75;;;;;18.88;29.48;101598.78;5078340;27;45241;-47
2022/03/09 09:07:02;;;;;;;;;12.75;12.75;;;;;18.87;29.48;101600.53;5078439;27;45572;-54
2022/03/09 09:09:27;;;;;;;;;13.75;13.00;;;;;18.87;29.59;101604.94;5078089;27;46095;-48
2022/03/09 09:11:54;;;;;;;;;17.25;14.25;;;;;18.87;29.80;101607.56;5078394;27;45254;-46
2022/03/09 09:14:19;;;;;;;;;16.75;13.25;;;;;18.85;29.52;101595.34;5078000;27;45297;-51
2022/03/09 09:16:45;;;;;;;;;15.00;14.25;;;;;18.85;29.51;101599.75;5078310;27;45299;-51
2022/03/09 09:19:10;;;;;;;;;13.50;13.00;;;;;18.85;29.51;101602.38;5077832;27;45253;-48
2022/03/09 09:21:36;;;;;;;;;16.25;11.50;;;;;18.85;29.79;101599.75;5077986;27;45349;-47
2022/03/09 09:24:02;;;;;;;;;16.50;16.00;;;;;18.85;29.87;101605.84;5077214;27;45349;-49
2022/03/09 09:26:27;;;;;;;;;16.25;15.50;;;;;18.86;29.73;101601.44;5078070;28;45448;-47
2022/03/09 09:28:52;;;;;;;;;14.00;13.50;;;;;18.86;29.74;101601.44;5078069;27;45381;-52
2022/03/09 09:31:18;;;;;;;;;11.00;11.00;;;;;18.84;29.98;101588.38;5077879;27;45333;-50
2022/03/09 09:33:43;;;;;;;;;14.50;11.00;;;;;18.84;29.67;101588.38;5076808;28;45347;-52
2022/03/09 09:36:08;;;;;;;;;13.75;13.25;;;;;18.84;29.75;101582.28;5078032;27;45319;-47
2022/03/09 09:38:34;;;;;;;;;14.25;13.00;;;;;18.85;29.65;101590.09;5077602;27;46345;-49
2022/03/09 09:41:00;;;;;;;;;12.25;12.25;;;;;18.85;29.78;101590.09;5077654;27;45424;-51
2022/03/09 09:43:26;;;;;;;;;14.50;12.00;;;;;18.85;29.91;101586.63;5078192;27;45385;-50
2022/03/09 09:45:52;;;;;;;;;13.50;10.75;;;;;18.85;29.89;101576.09;5076632;28;45589;-50
2022/03/09 09:48:19;;;;;;;;;12.00;10.75;;;;;18.81;30.11;101567.47;5077424;27;46971;-50
2022/03/09 09:50:45;;;;;;;;;14.50;11.00;;;;;18.89;30.05;101568.97;5077632;27;45849;-51
2022/03/09 09:53:14;;;;;;;;;12.50;12.50;;;;;18.91;30.04;101572.38;5077764;27;45477;-48
2022/03/09 09:55:41;;;;;;;;;12.50;11.00;;;;;18.95;30.41;101568.75;5077665;27;45525;-49
2022/03/09 09:58:06;;;;;;;;;9.50;9.00;;;;;18.98;30.10;101568.66;5077294;28;45429;-49
2022/03/09 10:00:32;;;;;;;;;11.75;9.75;;;;;19.03;30.14;101571.94;5077267;27;45370;-53
2022/03/09 10:02:58;;;;;;;;;13.00;9.50;;;;;19.09;30.07;101565.59;5077514;27;45267;-50
2022/03/09 10:05:24;;;;;;;;;11.75;9.00;;;;;19.13;30.32;101557.56;5076663;28;45642;-47
2022/03/09 10:08:07;;;;;;;;;11.75;9.75;;;;;19.23;30.38;101565.13;5077049;27;45361;-48
2022/03/09 10:10:38;;;;;;;;;8.50;8.50;;;;;19.30;30.12;101562.16;5077263;27;45806;-54
2022/03/09 10:13:19;;;;;;;;;9.25;7.75;;;;;19.39;30.51;101563.59;5075947;28;45355;-50
2022/03/09 10:15:47;;;;;;;;;9.75;9.75;;;;;19.45;30.17;101560.75;5077308;27;45465;-49
2022/03/09 10:18:21;;;;;;;;;10.00;8.25;;;;;19.54;30.30;101561.28;5076970;27;45483;-50
2022/03/09 10:20:49;;;;;;;;;9.50;9.00;;;;;19.62;30.49;101567.09;5077076;27;45530;-49
2022/03/09 10:23:17;;;;;;;;;11.25;8.75;;;;;19.68;30.44;101564.19;5077139;27;45422;-51
2022/03/09 10:25:42;;;;;;;;;10.00;8.00;;;;;19.75;30.33;101564.81;5077239;27;45294;-50
2022/03/09 10:28:10;;;;;;;;;8.50;8.00;;;;;19.83;30.30;101567.13;5076914;27;45244;-47
2022/03/09 10:30:39;;;;;;;;;6.50;6.50;;;;;19.88;30.12;101559.97;5077017;27;45856;-52
2022/03/09 10:33:07;;;;;;;;;7.25;7.00;;;;;19.93;30.47;101557.97;5077184;27;45475;-47
2022/03/09 10:35:32;;;;;;;;;8.50;7.50;;;;;19.97;29.92;101551.69;5075999;28;45550;-46
2022/03/09 10:37:58;;;;;;;;;9.00;8.00;;;;;20.04;30.47;101552.28;5075764;28;47193;-47
2022/03/09 10:40:25;;;;;;;;;6.50;6.50;;;;;20.08;30.38;101551.22;5076742;27;45814;-46
2022/03/09 10:43:08;;;;;;;;;6.75;6.75;;;;;20.13;30.39;101549.25;5076994;28;45307;-46
2022/03/09 10:45:33;;;;;;;;;9.00;9.00;;;;;20.18;29.87;101546.44;5077088;28;45314;-47
2022/03/09 10:47:58;;;;;;;;;7.00;6.50;;;;;20.21;30.02;101541.88;5076926;27;45997;-47
2022/03/09 10:50:25;;;;;;;;;7.25;7.00;;;;;20.24;30.26;101541.75;5076548;28;45260;-46
2022/03/09 10:53:02;;;;;;;;;8.00;6.25;;;;;20.30;30.18;101540.66;5076918;27;45301;-46
2022/03/09 10:55:32;;;;;;;;;5.00;5.00;;;;;20.32;30.12;101545.84;5077054;27;45337;-50
2022/03/09 10:58:21;;;;;;;;;6.00;6.00;;;;;20.35;30.22;101546.56;5076579;27;45387;-47
2022/03/09 11:00:50;;;;;;;;;7.00;6.25;;;;;20.37;29.81;101544.72;5075023;28;45843;-49
2022/03/09 11:03:17;;;;;;;;;8.00;8.00;;;;;20.37;30.39;101547.34;5076644;27;45388;-53
2022/03/09 11:05:51;;;;;;;;;5.50;5.00;;;;;20.41;30.27;101545.44;5076677;27;45602;-47
2022/03/09 11:08:24;;;;;;;;;9.50;6.25;;;;;20.44;30.24;101547.94;5076226;27;45461;-46